GASO weather

Dignangan Airport
Sikasso Region, Mali

Public forecast

Using degrees Celsius for public forecast. Weather courtesy of forecast.io.

METAR (pilot weather report)

Report is more than 6 hours old.

Closest report is Sikasso Airport, 17.0 nm (31.4 km) SSE. Retrieved 2018/10/25 17:10 UTC (5 months ago):

GASK 251710Z 12018KT 7000 TSRA FEW020 FEW30CB 34/20 Q//// ORAGE ET PLUIE A LA STATION

TAF (pilot weather forecast)

Closest forecast is Bobo Dioulasso Airport, 90.4 nm (167.3 km) ESE. Retrieved 2019/03/19 18:21 UTC (21 minutes ago):

TAF DFOO 191700Z 1918/2018 22008KT 8000 FEW020 TEMPO 1918/2002 4000 TSRA SCT020 FEW036CB